Roseau, MN

3:30 PM CDT on July 29, 2014 (GMT -0500)
Roseau Municipal-Billberg (KROX) Elev 1060 ft | 48.86 °N, 95.70 °W | Change Station

Current weather conditions updated 16 minutes ago

Scattered Clouds
Scattered Clouds
77 °F
Feels Like 77 °F
N
8
Wind Variable Wind from NW

Today is forecast to be Warmer than yesterday.

Today
High -- | Low -- °F
--% Chance of Precip.
Yesterday
High -- | Low -- °F
Precip. -- in
5:52 AM 9:05 PM
Waxing Crescent, 7% visible
Pressure 30.10 in
Visibility 10.0 miles
Clouds Scattered Clouds 6000 ft
Dew Point 59 °F
Humidity 54%
Rainfall 0.00 in
Snow Depth Not available.
UV 7 out of 12
Pollen 7.50 out of 12
Air Quality Not available.
Flu Activity Not available.
METAR KROX 292014Z AUTO 31007KT 295V355 10SM SCT060 25/15 A3010 RMK AO2

More Conditions Fewer Conditions

Pressure 30.10 in
Visibility 10.0 miles
Clouds Scattered Clouds 6000 ft
Dew Point 59 °F
Humidity 54%
Rainfall 0.00 in
Snow Depth Not available.
UV 7 out of 12
Pollen 7.50 out of 12
Air Quality Not available.
Flu Activity Not available.
METAR KROX 292014Z AUTO 31007KT 295V355 10SM SCT060 25/15 A3010 RMK AO2

More Conditions Fewer Conditions

10-Day Weather Forecast

Almanac

Astronomy

Jul. 29, 2014 Rise Set
Actual Time 5:52 AM CDT 9:05 PM CDT
Civil Twilight 5:14 AM CDT 9:43 PM CDT
Nautical Twilight 4:24 AM CDT 10:32 PM CDT
Astronomical Twilight 3:20 AM CDT 11:35 PM CDT
Moon 8:47 AM CDT 9:57 PM CDT
Length of Visible Light 16h 28m
Length of Day
15h 13m
Tomorrow will be 2m 42s shorter.
Waxing Crescent, 7% of the Moon is Illuminated
Today
Waxing Crescent
Aug 3
First Quarter
Aug 10
Full
Aug 17
Last Quarter
Aug 25
New

Today's Extremes

State Highs State Lows

Community

WunderPhotos

Upload Photos

1,738,851 photos uploaded!

Nearby

Snow Depth

Station Depth Elevation
No new snow has been reported.

Earthquake Activity

City Distance Mag. Time & Date
No recent earthquake activity has been reported nearby.
Minimum magnitude displayed is 2.5.

Coastal Water Temperatures

Place Temperature
No Stations Reporting

Nearby Weather Stations

There are no personal weather stations in this area.